sensor_id;sensor_type;location;lat;lon;timestamp;pressure;altitude;pressure_sealevel;temperature;humidity
46430;BME280;32131;53.454;-6.180;2024-02-14T00:00:44;100300.28;;;7.34;100.00
46430;BME280;32131;53.454;-6.180;2024-02-14T00:03:13;100296.88;;;7.35;100.00
46430;BME280;32131;53.454;-6.180;2024-02-14T00:05:42;100294.31;;;7.37;100.00
46430;BME280;32131;53.454;-6.180;2024-02-14T00:08:11;100299.47;;;7.37;100.00
46430;BME280;32131;53.454;-6.180;2024-02-14T00:10:42;100300.38;;;7.39;100.00
46430;BME280;32131;53.454;-6.180;2024-02-14T00:13:11;100300.41;;;7.40;100.00
46430;BME280;32131;53.454;-6.180;2024-02-14T00:15:41;100293.56;;;7.41;100.00
46430;BME280;32131;53.454;-6.180;2024-02-14T00:18:10;100289.25;;;7.38;100.00
46430;BME280;32131;53.454;-6.180;2024-02-14T00:20:38;100295.22;;;7.37;100.00
46430;BME280;32131;53.454;-6.180;2024-02-14T00:23:07;100293.47;;;7.36;100.00
46430;BME280;32131;53.454;-6.180;2024-02-14T00:25:36;100287.50;;;7.37;100.00
46430;BME280;32131;53.454;-6.180;2024-02-14T00:28:05;100289.25;;;7.38;100.00
46430;BME280;32131;53.454;-6.180;2024-02-14T00:30:35;100289.25;;;7.40;100.00
46430;BME280;32131;53.454;-6.180;2024-02-14T00:33:05;100291.00;;;7.41;100.00
46430;BME280;32131;53.454;-6.180;2024-02-14T00:35:34;100284.97;;;7.40;100.00
46430;BME280;32131;53.454;-6.180;2024-02-14T00:38:03;100289.31;;;7.43;100.00
46430;BME280;32131;53.454;-6.180;2024-02-14T00:40:31;100277.31;;;7.42;100.00
46430;BME280;32131;53.454;-6.180;2024-02-14T00:43:00;100280.75;;;7.43;100.00
46430;BME280;32131;53.454;-6.180;2024-02-14T00:45:29;100273.13;;;7.46;100.00
46430;BME280;32131;53.454;-6.180;2024-02-14T00:47:57;100274.00;;;7.48;100.00
46430;BME280;32131;53.454;-6.180;2024-02-14T00:50:28;100272.22;;;7.45;100.00
46430;BME280;32131;53.454;-6.180;2024-02-14T00:52:56;100275.63;;;7.43;100.00
46430;BME280;32131;53.454;-6.180;2024-02-14T00:55:27;100281.53;;;7.38;100.00
46430;BME280;32131;53.454;-6.180;2024-02-14T00:57:55;100278.00;;;7.35;100.00
46430;BME280;32131;53.454;-6.180;2024-02-14T01:00:25;100288.16;;;7.29;100.00
46430;BME280;32131;53.454;-6.180;2024-02-14T01:02:54;100281.19;;;7.23;100.00
46430;BME280;32131;53.454;-6.180;2024-02-14T01:05:24;100283.66;;;7.18;100.00
46430;BME280;32131;53.454;-6.180;2024-02-14T01:07:55;100283.53;;;7.12;100.00
46430;BME280;32131;53.454;-6.180;2024-02-14T01:10:23;100286.09;;;7.12;100.00
46430;BME280;32131;53.454;-6.180;2024-02-14T01:12:51;100287.81;;;7.12;100.00
46430;BME280;32131;53.454;-6.180;2024-02-14T01:15:20;100276.72;;;7.14;100.00
46430;BME280;32131;53.454;-6.180;2024-02-14T01:17:49;100278.50;;;7.17;100.00
46430;BME280;32131;53.454;-6.180;2024-02-14T01:20:19;100285.34;;;7.16;100.00
46430;BME280;32131;53.454;-6.180;2024-02-14T01:22:48;100276.72;;;7.14;100.00
46430;BME280;32131;53.454;-6.180;2024-02-14T01:25:22;100274.25;;;7.19;100.00
46430;BME280;32131;53.454;-6.180;2024-02-14T01:27:52;100274.31;;;7.22;100.00
46430;BME280;32131;53.454;-6.180;2024-02-14T01:30:21;100277.75;;;7.21;100.00
46430;BME280;32131;53.454;-6.180;2024-02-14T01:32:51;100275.13;;;7.19;100.00
46430;BME280;32131;53.454;-6.180;2024-02-14T01:35:21;100276.81;;;7.17;100.00
46430;BME280;32131;53.454;-6.180;2024-02-14T01:37:49;100275.00;;;7.15;100.00
46430;BME280;32131;53.454;-6.180;2024-02-14T01:40:23;100275.00;;;7.13;100.00
46430;BME280;32131;53.454;-6.180;2024-02-14T01:42:53;100275.78;;;7.11;100.00
46430;BME280;32131;53.454;-6.180;2024-02-14T01:45:22;100269.78;;;7.10;100.00
46430;BME280;32131;53.454;-6.180;2024-02-14T01:47:53;100276.59;;;7.08;100.00
46430;BME280;32131;53.454;-6.180;2024-02-14T01:50:22;100270.59;;;7.07;100.00
46430;BME280;32131;53.454;-6.180;2024-02-14T01:52:58;100272.31;;;7.08;100.00
46430;BME280;32131;53.454;-6.180;2024-02-14T01:55:29;100268.06;;;7.09;100.00
46430;BME280;32131;53.454;-6.180;2024-02-14T01:57:58;100278.34;;;7.09;100.00
46430;BME280;32131;53.454;-6.180;2024-02-14T02:00:27;100277.38;;;7.05;100.00
46430;BME280;32131;53.454;-6.180;2024-02-14T02:02:56;100275.56;;;7.00;100.00
46430;BME280;32131;53.454;-6.180;2024-02-14T02:05:25;100276.19;;;6.91;100.00
46430;BME280;32131;53.454;-6.180;2024-02-14T02:07:56;100277.03;;;6.90;100.00
46430;BME280;32131;53.454;-6.180;2024-02-14T02:10:24;100277.09;;;6.91;100.00
46430;BME280;32131;53.454;-6.180;2024-02-14T02:12:59;100267.56;;;6.87;100.00
46430;BME280;32131;53.454;-6.180;2024-02-14T02:15:28;100271.69;;;6.81;100.00
46430;BME280;32131;53.454;-6.180;2024-02-14T02:17:57;100271.75;;;6.82;100.00
46430;BME280;32131;53.454;-6.180;2024-02-14T02:20:27;100276.06;;;6.85;100.00
46430;BME280;32131;53.454;-6.180;2024-02-14T02:22:57;100273.59;;;6.88;100.00
46430;BME280;32131;53.454;-6.180;2024-02-14T02:25:26;100278.66;;;6.86;100.00
46430;BME280;32131;53.454;-6.180;2024-02-14T02:27:55;100270.91;;;6.83;100.00
46430;BME280;32131;53.454;-6.180;2024-02-14T02:30:25;100270.03;;;6.84;100.00
46430;BME280;32131;53.454;-6.180;2024-02-14T02:32:54;100267.44;;;6.81;100.00
46430;BME280;32131;53.454;-6.180;2024-02-14T02:35:23;100271.88;;;6.88;100.00
46430;BME280;32131;53.454;-6.180;2024-02-14T02:37:53;100261.69;;;6.91;100.00
46430;BME280;32131;53.454;-6.180;2024-02-14T02:40:24;100259.06;;;6.90;100.00
46430;BME280;32131;53.454;-6.180;2024-02-14T02:42:52;100258.94;;;6.84;100.00
46430;BME280;32131;53.454;-6.180;2024-02-14T02:45:22;100257.97;;;6.79;100.00
46430;BME280;32131;53.454;-6.180;2024-02-14T02:47:51;100258.69;;;6.73;100.00
46430;BME280;32131;53.454;-6.180;2024-02-14T02:50:22;100254.16;;;6.63;100.00
46430;BME280;32131;53.454;-6.180;2024-02-14T02:52:51;100258.16;;;6.51;100.00
46430;BME280;32131;53.454;-6.180;2024-02-14T02:55:19;100267.34;;;6.43;100.00
46430;BME280;32131;53.454;-6.180;2024-02-14T02:57:49;100266.38;;;6.36;100.00
46430;BME280;32131;53.454;-6.180;2024-02-14T03:00:19;100273.88;;;6.30;100.00
46430;BME280;32131;53.454;-6.180;2024-02-14T03:02:49;100266.94;;;6.26;100.00
46430;BME280;32131;53.454;-6.180;2024-02-14T03:05:18;100266.75;;;6.18;100.00
46430;BME280;32131;53.454;-6.180;2024-02-14T03:07:47;100263.22;;;6.14;100.00
46430;BME280;32131;53.454;-6.180;2024-02-14T03:10:17;100260.66;;;6.13;100.00
46430;BME280;32131;53.454;-6.180;2024-02-14T03:12:49;100266.63;;;6.13;100.00
46430;BME280;32131;53.454;-6.180;2024-02-14T03:15:19;100259.81;;;6.14;100.00
46430;BME280;32131;53.454;-6.180;2024-02-14T03:17:47;100261.56;;;6.15;100.00
46430;BME280;32131;53.454;-6.180;2024-02-14T03:20:16;100264.13;;;6.15;100.00
46430;BME280;32131;53.454;-6.180;2024-02-14T03:22:47;100259.06;;;6.18;100.00
46430;BME280;32131;53.454;-6.180;2024-02-14T03:25:17;100254.88;;;6.22;100.00
46430;BME280;32131;53.454;-6.180;2024-02-14T03:27:46;100266.16;;;6.28;100.00
46430;BME280;32131;53.454;-6.180;2024-02-14T03:30:20;100258.66;;;6.36;100.00
46430;BME280;32131;53.454;-6.180;2024-02-14T03:32:49;100255.41;;;6.42;100.00
46430;BME280;32131;53.454;-6.180;2024-02-14T03:35:19;100259.66;;;6.43;100.00
46430;BME280;32131;53.454;-6.180;2024-02-14T03:37:50;100254.53;;;6.43;100.00
46430;BME280;32131;53.454;-6.180;2024-02-14T03:40:19;100258.00;;;6.45;100.00
46430;BME280;32131;53.454;-6.180;2024-02-14T03:42:52;100249.50;;;6.46;100.00
46430;BME280;32131;53.454;-6.180;2024-02-14T03:45:24;100259.03;;;6.52;100.00
46430;BME280;32131;53.454;-6.180;2024-02-14T03:47:54;100254.94;;;6.58;100.00
46430;BME280;32131;53.454;-6.180;2024-02-14T03:50:23;100251.69;;;6.66;100.00
46430;BME280;32131;53.454;-6.180;2024-02-14T03:52:52;100249.16;;;6.69;100.00
46430;BME280;32131;53.454;-6.180;2024-02-14T03:55:22;100256.25;;;6.79;100.00
46430;BME280;32131;53.454;-6.180;2024-02-14T03:57:51;100263.41;;;6.92;100.00
46430;BME280;32131;53.454;-6.180;2024-02-14T04:00:24;100255.16;;;7.06;100.00
46430;BME280;32131;53.454;-6.180;2024-02-14T04:02:52;100262.13;;;7.12;100.00
46430;BME280;32131;53.454;-6.180;2024-02-14T04:05:26;100251.13;;;7.17;100.00
46430;BME280;32131;53.454;-6.180;2024-02-14T04:07:55;100249.44;;;7.19;100.00
46430;BME280;32131;53.454;-6.180;2024-02-14T04:10:24;100248.59;;;7.19;100.00
46430;BME280;32131;53.454;-6.180;2024-02-14T04:12:52;100247.84;;;7.24;100.00
46430;BME280;32131;53.454;-6.180;2024-02-14T04:15:21;100244.69;;;7.38;100.00
46430;BME280;32131;53.454;-6.180;2024-02-14T04:17:53;100238.13;;;7.52;100.00
46430;BME280;32131;53.454;-6.180;2024-02-14T04:20:27;100235.78;;;7.63;100.00
46430;BME280;32131;53.454;-6.180;2024-02-14T04:22:57;100230.75;;;7.69;100.00
46430;BME280;32131;53.454;-6.180;2024-02-14T04:25:26;100228.28;;;7.74;100.00
46430;BME280;32131;53.454;-6.180;2024-02-14T04:27:56;100212.97;;;7.80;100.00
46430;BME280;32131;53.454;-6.180;2024-02-14T04:30:26;100207.81;;;7.80;100.00
46430;BME280;32131;53.454;-6.180;2024-02-14T04:32:57;100211.22;;;7.79;100.00
46430;BME280;32131;53.454;-6.180;2024-02-14T04:35:26;100206.88;;;7.75;100.00
46430;BME280;32131;53.454;-6.180;2024-02-14T04:37:55;100206.84;;;7.74;100.00
46430;BME280;32131;53.454;-6.180;2024-02-14T04:40:24;100219.66;;;7.72;100.00
46430;BME280;32131;53.454;-6.180;2024-02-14T04:42:53;100211.22;;;7.79;100.00
46430;BME280;32131;53.454;-6.180;2024-02-14T04:45:23;100209.72;;;7.91;100.00
46430;BME280;32131;53.454;-6.180;2024-02-14T04:47:51;100213.22;;;7.96;100.00
46430;BME280;32131;53.454;-6.180;2024-02-14T04:50:21;100220.13;;;7.98;100.00
46430;BME280;32131;53.454;-6.180;2024-02-14T04:52:49;100236.44;;;7.99;100.00
46430;BME280;32131;53.454;-6.180;2024-02-14T04:55:18;100237.34;;;8.01;100.00
46430;BME280;32131;53.454;-6.180;2024-02-14T04:57:47;100231.47;;;8.08;100.00
46430;BME280;32131;53.454;-6.180;2024-02-14T05:00:16;100231.53;;;8.13;100.00
46430;BME280;32131;53.454;-6.180;2024-02-14T05:02:46;100233.28;;;8.14;100.00
46430;BME280;32131;53.454;-6.180;2024-02-14T05:05:15;100236.72;;;8.16;100.00
46430;BME280;32131;53.454;-6.180;2024-02-14T05:07:45;100229.00;;;8.14;100.00
46430;BME280;32131;53.454;-6.180;2024-02-14T05:10:14;100230.72;;;8.15;100.00
46430;BME280;32131;53.454;-6.180;2024-02-14T05:12:43;100228.16;;;8.15;100.00
46430;BME280;32131;53.454;-6.180;2024-02-14T05:15:12;100226.50;;;8.21;100.00
46430;BME280;32131;53.454;-6.180;2024-02-14T05:17:42;100231.75;;;8.25;100.00
46430;BME280;32131;53.454;-6.180;2024-02-14T05:20:12;100234.38;;;8.30;100.00
46430;BME280;32131;53.454;-6.180;2024-02-14T05:22:41;100232.81;;;8.38;100.00
46430;BME280;32131;53.454;-6.180;2024-02-14T05:25:10;100233.78;;;8.46;100.00
46430;BME280;32131;53.454;-6.180;2024-02-14T05:27:39;100234.84;;;8.56;100.00
46430;BME280;32131;53.454;-6.180;2024-02-14T05:30:07;100236.75;;;8.68;100.00
46430;BME280;32131;53.454;-6.180;2024-02-14T05:32:36;100237.69;;;8.75;100.00
46430;BME280;32131;53.454;-6.180;2024-02-14T05:35:07;100230.09;;;8.81;100.00
46430;BME280;32131;53.454;-6.180;2024-02-14T05:37:36;100237.84;;;8.84;100.00
46430;BME280;32131;53.454;-6.180;2024-02-14T05:40:06;100233.59;;;8.88;100.00
46430;BME280;32131;53.454;-6.180;2024-02-14T05:42:37;100237.13;;;8.93;100.00
46430;BME280;32131;53.454;-6.180;2024-02-14T05:45:07;100239.66;;;8.91;100.00
46430;BME280;32131;53.454;-6.180;2024-02-14T05:47:38;100234.47;;;8.88;100.00
46430;BME280;32131;53.454;-6.180;2024-02-14T05:50:09;100243.00;;;8.86;100.00
46430;BME280;32131;53.454;-6.180;2024-02-14T05:52:38;100230.03;;;8.79;100.00
46430;BME280;32131;53.454;-6.180;2024-02-14T05:55:07;100238.72;;;8.85;100.00
46430;BME280;32131;53.454;-6.180;2024-02-14T05:57:37;100237.91;;;8.89;100.00
46430;BME280;32131;53.454;-6.180;2024-02-14T06:00:07;100232.81;;;8.95;100.00
46430;BME280;32131;53.454;-6.180;2024-02-14T06:02:38;100225.22;;;9.01;100.00
46430;BME280;32131;53.454;-6.180;2024-02-14T06:05:07;100220.94;;;9.03;100.00
46430;BME280;32131;53.454;-6.180;2024-02-14T06:07:36;100220.13;;;9.06;100.00
46430;BME280;32131;53.454;-6.180;2024-02-14T06:10:05;100229.59;;;9.08;100.00
46430;BME280;32131;53.454;-6.180;2024-02-14T06:12:39;100238.94;;;9.03;100.00
46430;BME280;32131;53.454;-6.180;2024-02-14T06:15:09;100241.53;;;9.03;100.00
46430;BME280;32131;53.454;-6.180;2024-02-14T06:17:38;100241.56;;;9.05;100.00
46430;BME280;32131;53.454;-6.180;2024-02-14T06:20:07;100244.13;;;9.05;100.00
46430;BME280;32131;53.454;-6.180;2024-02-14T06:22:37;100245.00;;;9.05;100.00
46430;BME280;32131;53.454;-6.180;2024-02-14T06:25:16;100243.38;;;9.10;100.00
46430;BME280;32131;53.454;-6.180;2024-02-14T06:27:46;100246.84;;;9.14;100.00
46430;BME280;32131;53.454;-6.180;2024-02-14T06:30:15;100239.13;;;9.17;100.00
46430;BME280;32131;53.454;-6.180;2024-02-14T06:32:44;100231.41;;;9.16;100.00
46430;BME280;32131;53.454;-6.180;2024-02-14T06:35:15;100247.69;;;9.15;100.00
46430;BME280;32131;53.454;-6.180;2024-02-14T06:37:47;100244.22;;;9.12;100.00
46430;BME280;32131;53.454;-6.180;2024-02-14T06:40:28;100242.47;;;9.08;100.00
46430;BME280;32131;53.454;-6.180;2024-02-14T06:43:00;100237.25;;;9.02;100.00
46430;BME280;32131;53.454;-6.180;2024-02-14T06:45:29;100240.56;;;8.95;100.00
46430;BME280;32131;53.454;-6.180;2024-02-14T06:47:58;100234.41;;;8.85;100.00
46430;BME280;32131;53.454;-6.180;2024-02-14T06:50:26;100250.56;;;8.75;100.00
46430;BME280;32131;53.454;-6.180;2024-02-14T06:52:56;100247.00;;;8.65;100.00
46430;BME280;32131;53.454;-6.180;2024-02-14T06:55:27;100249.41;;;8.56;100.00
46430;BME280;32131;53.454;-6.180;2024-02-14T06:57:55;100258.78;;;8.51;100.00
46430;BME280;32131;53.454;-6.180;2024-02-14T07:00:26;100262.94;;;8.45;100.00
46430;BME280;32131;53.454;-6.180;2024-02-14T07:02:55;100258.69;;;8.46;100.00
46430;BME280;32131;53.454;-6.180;2024-02-14T07:05:24;100262.09;;;8.46;100.00
46430;BME280;32131;53.454;-6.180;2024-02-14T07:07:53;100262.09;;;8.45;100.00
46430;BME280;32131;53.454;-6.180;2024-02-14T07:10:22;100255.19;;;8.42;100.00
46430;BME280;32131;53.454;-6.180;2024-02-14T07:12:51;100256.88;;;8.40;100.00
46430;BME280;32131;53.454;-6.180;2024-02-14T07:15:20;100255.94;;;8.37;100.00
46430;BME280;32131;53.454;-6.180;2024-02-14T07:17:52;100258.44;;;8.30;100.00
46430;BME280;32131;53.454;-6.180;2024-02-14T07:20:23;100263.50;;;8.27;100.00
46430;BME280;32131;53.454;-6.180;2024-02-14T07:22:53;100265.25;;;8.28;100.00
46430;BME280;32131;53.454;-6.180;2024-02-14T07:25:24;100266.06;;;8.27;100.00
46430;BME280;32131;53.454;-6.180;2024-02-14T07:27:52;100264.28;;;8.23;100.00
46430;BME280;32131;53.454;-6.180;2024-02-14T07:30:22;100268.47;;;8.18;100.00
46430;BME280;32131;53.454;-6.180;2024-02-14T07:32:56;100249.50;;;8.11;100.00
46430;BME280;32131;53.454;-6.180;2024-02-14T07:35:26;100250.28;;;8.07;100.00
46430;BME280;32131;53.454;-6.180;2024-02-14T07:37:55;100263.09;;;8.04;100.00
46430;BME280;32131;53.454;-6.180;2024-02-14T07:40:24;100259.59;;;8.00;100.00
46430;BME280;32131;53.454;-6.180;2024-02-14T07:42:54;100269.03;;;8.00;100.00
46430;BME280;32131;53.454;-6.180;2024-02-14T07:45:22;100267.31;;;8.00;100.00
46430;BME280;32131;53.454;-6.180;2024-02-14T07:47:51;100277.66;;;8.03;100.00
46430;BME280;32131;53.454;-6.180;2024-02-14T07:50:21;100276.00;;;8.06;100.00
46430;BME280;32131;53.454;-6.180;2024-02-14T07:52:50;100285.41;;;8.07;100.00
46430;BME280;32131;53.454;-6.180;2024-02-14T07:55:21;100287.19;;;8.09;100.00
46430;BME280;32131;53.454;-6.180;2024-02-14T07:57:49;100292.34;;;8.09;100.00
46430;BME280;32131;53.454;-6.180;2024-02-14T08:00:20;100282.91;;;8.08;100.00
46430;BME280;32131;53.454;-6.180;2024-02-14T08:02:52;100276.00;;;8.07;100.00
46430;BME280;32131;53.454;-6.180;2024-02-14T08:05:22;100268.31;;;8.07;100.00
46430;BME280;32131;53.454;-6.180;2024-02-14T08:07:52;100271.78;;;8.09;100.00
46430;BME280;32131;53.454;-6.180;2024-02-14T08:10:21;100273.47;;;8.10;100.00
46430;BME280;32131;53.454;-6.180;2024-02-14T08:12:50;100277.91;;;8.17;100.00
46430;BME280;32131;53.454;-6.180;2024-02-14T08:15:18;100273.72;;;8.23;100.00
46430;BME280;32131;53.454;-6.180;2024-02-14T08:17:47;100286.72;;;8.30;100.00
46430;BME280;32131;53.454;-6.180;2024-02-14T08:20:16;100291.16;;;8.39;100.00
46430;BME280;32131;53.454;-6.180;2024-02-14T08:22:47;100293.81;;;8.45;100.00
46430;BME280;32131;53.454;-6.180;2024-02-14T08:25:16;100292.25;;;8.54;100.00
46430;BME280;32131;53.454;-6.180;2024-02-14T08:27:45;100299.28;;;8.62;100.00
46430;BME280;32131;53.454;-6.180;2024-02-14T08:30:14;100311.41;;;8.68;100.00
46430;BME280;32131;53.454;-6.180;2024-02-14T08:32:44;100302.88;;;8.74;100.00
46430;BME280;32131;53.454;-6.180;2024-02-14T08:35:13;100296.97;;;8.79;100.00
46430;BME280;32131;53.454;-6.180;2024-02-14T08:37:42;100303.09;;;8.86;100.00
46430;BME280;32131;53.454;-6.180;2024-02-14T08:40:14;100299.69;;;8.90;100.00
46430;BME280;32131;53.454;-6.180;2024-02-14T08:42:43;100305.81;;;8.95;100.00
46430;BME280;32131;53.454;-6.180;2024-02-14T08:45:12;100305.91;;;9.03;100.00
46430;BME280;32131;53.454;-6.180;2024-02-14T08:47:43;100311.19;;;9.12;100.00
46430;BME280;32131;53.454;-6.180;2024-02-14T08:50:12;100303.66;;;9.25;100.00
46430;BME280;32131;53.454;-6.180;2024-02-14T08:52:43;100298.66;;;9.37;100.00
46430;BME280;32131;53.454;-6.180;2024-02-14T08:55:13;100297.88;;;9.44;100.00
46430;BME280;32131;53.454;-6.180;2024-02-14T08:57:46;100290.25;;;9.51;100.00
46430;BME280;32131;53.454;-6.180;2024-02-14T09:00:16;100296.38;;;9.62;100.00
46430;BME280;32131;53.454;-6.180;2024-02-14T09:02:47;100303.38;;;9.69;100.00
46430;BME280;32131;53.454;-6.180;2024-02-14T09:05:15;100314.59;;;9.74;100.00
46430;BME280;32131;53.454;-6.180;2024-02-14T09:07:46;100324.09;;;9.79;100.00
46430;BME280;32131;53.454;-6.180;2024-02-14T09:10:16;100323.28;;;9.81;100.00
46430;BME280;32131;53.454;-6.180;2024-02-14T09:12:44;100322.47;;;9.85;100.00
46430;BME280;32131;53.454;-6.180;2024-02-14T09:15:13;100315.66;;;9.92;100.00
46430;BME280;32131;53.454;-6.180;2024-02-14T09:17:42;100320.88;;;9.97;100.00
46430;BME280;32131;53.454;-6.180;2024-02-14T09:20:11;100327.78;;;9.99;100.00
46430;BME280;32131;53.454;-6.180;2024-02-14T09:22:42;100332.94;;;9.98;100.00
46430;BME280;32131;53.454;-6.180;2024-02-14T09:25:10;100328.63;;;9.98;100.00
46430;BME280;32131;53.454;-6.180;2024-02-14T09:27:42;100334.75;;;10.08;100.00
46430;BME280;32131;53.454;-6.180;2024-02-14T09:30:10;100340.09;;;10.23;100.00
46430;BME280;32131;53.454;-6.180;2024-02-14T09:32:54;100342.72;;;10.31;100.00
46430;BME280;32131;53.454;-6.180;2024-02-14T09:35:22;100344.50;;;10.35;100.00
46430;BME280;32131;53.454;-6.180;2024-02-14T09:37:52;100341.16;;;10.43;100.00
46430;BME280;32131;53.454;-6.180;2024-02-14T09:40:21;100336.91;;;10.49;100.00
46430;BME280;32131;53.454;-6.180;2024-02-14T09:42:54;100326.66;;;10.56;100.00
46430;BME280;32131;53.454;-6.180;2024-02-14T09:45:25;100328.44;;;10.63;100.00
46430;BME280;32131;53.454;-6.180;2024-02-14T09:47:55;100337.97;;;10.70;100.00
46430;BME280;32131;53.454;-6.180;2024-02-14T09:50:29;100338.81;;;10.70;100.00
46430;BME280;32131;53.454;-6.180;2024-02-14T09:53:00;100341.41;;;10.70;100.00
46430;BME280;32131;53.454;-6.180;2024-02-14T09:55:35;100339.69;;;10.73;100.00
46430;BME280;32131;53.454;-6.180;2024-02-14T09:58:07;100349.19;;;10.75;100.00
46430;BME280;32131;53.454;-6.180;2024-02-14T10:00:36;100343.22;;;10.79;100.00
46430;BME280;32131;53.454;-6.180;2024-02-14T10:03:05;100340.66;;;10.84;100.00
46430;BME280;32131;53.454;-6.180;2024-02-14T10:05:35;100349.31;;;10.89;100.00
46430;BME280;32131;53.454;-6.180;2024-02-14T10:08:04;100350.19;;;10.93;100.00
46430;BME280;32131;53.454;-6.180;2024-02-14T10:10:33;100352.78;;;10.91;100.00
46430;BME280;32131;53.454;-6.180;2024-02-14T10:13:04;100358.78;;;10.92;100.00
46430;BME280;32131;53.454;-6.180;2024-02-14T10:15:34;100362.28;;;10.97;100.00
46430;BME280;32131;53.454;-6.180;2024-02-14T10:18:04;100365.72;;;10.97;100.00
46430;BME280;32131;53.454;-6.180;2024-02-14T10:20:33;100362.28;;;11.00;100.00
46430;BME280;32131;53.454;-6.180;2024-02-14T10:23:11;100365.81;;;11.08;100.00
46430;BME280;32131;53.454;-6.180;2024-02-14T10:25:42;100358.19;;;11.25;100.00
46430;BME280;32131;53.454;-6.180;2024-02-14T10:28:13;100349.66;;;11.42;100.00
46430;BME280;32131;53.454;-6.180;2024-02-14T10:30:47;100349.69;;;11.48;100.00
46430;BME280;32131;53.454;-6.180;2024-02-14T10:33:18;100360.91;;;11.50;100.00
46430;BME280;32131;53.454;-6.180;2024-02-14T10:35:57;100350.66;;;11.64;100.00
46430;BME280;32131;53.454;-6.180;2024-02-14T10:38:32;100360.19;;;11.74;100.00
46430;BME280;32131;53.454;-6.180;2024-02-14T10:41:02;100363.66;;;11.81;100.00
46430;BME280;32131;53.454;-6.180;2024-02-14T10:43:40;100371.53;;;12.04;100.00
46430;BME280;32131;53.454;-6.180;2024-02-14T10:46:19;100379.38;;;12.27;100.00
46430;BME280;32131;53.454;-6.180;2024-02-14T10:48:53;100371.63;;;12.40;100.00
46430;BME280;32131;53.454;-6.180;2024-02-14T10:51:23;100380.28;;;12.53;100.00
46430;BME280;32131;53.454;-6.180;2024-02-14T10:53:54;100376.84;;;12.54;100.00
46430;BME280;32131;53.454;-6.180;2024-02-14T10:56:28;100379.44;;;12.52;100.00
46430;BME280;32131;53.454;-6.180;2024-02-14T10:59:00;100372.53;;;12.64;100.00
46430;BME280;32131;53.454;-6.180;2024-02-14T11:01:32;100374.25;;;12.69;100.00
46430;BME280;32131;53.454;-6.180;2024-02-14T11:04:02;100373.44;;;12.78;100.00
46430;BME280;32131;53.454;-6.180;2024-02-14T11:06:31;100376.88;;;12.88;100.00
46430;BME280;32131;53.454;-6.180;2024-02-14T11:09:01;100373.41;;;12.95;100.00
46430;BME280;32131;53.454;-6.180;2024-02-14T11:11:34;100382.06;;;13.05;100.00
46430;BME280;32131;53.454;-6.180;2024-02-14T11:14:06;100388.13;;;13.13;100.00
46430;BME280;32131;53.454;-6.180;2024-02-14T11:16:40;100393.28;;;13.21;100.00
46430;BME280;32131;53.454;-6.180;2024-02-14T11:19:10;100385.50;;;13.19;100.00
46430;BME280;32131;53.454;-6.180;2024-02-14T11:21:40;100397.59;;;13.24;100.00
46430;BME280;32131;53.454;-6.180;2024-02-14T11:24:11;100390.69;;;13.16;100.00
46430;BME280;32131;53.454;-6.180;2024-02-14T11:26:46;100395.00;;;13.22;100.00
46430;BME280;32131;53.454;-6.180;2024-02-14T11:29:19;100394.97;;;13.33;100.00
46430;BME280;32131;53.454;-6.180;2024-02-14T11:31:59;100402.78;;;13.47;100.00
46430;BME280;32131;53.454;-6.180;2024-02-14T11:34:30;100405.38;;;13.59;100.00
46430;BME280;32131;53.454;-6.180;2024-02-14T11:37:04;100398.41;;;13.69;100.00
46430;BME280;32131;53.454;-6.180;2024-02-14T11:39:34;100406.16;;;13.77;100.00
46430;BME280;32131;53.454;-6.180;2024-02-14T11:42:02;100401.84;;;13.80;100.00
46430;BME280;32131;53.454;-6.180;2024-02-14T11:44:31;100400.94;;;13.84;100.00
46430;BME280;32131;53.454;-6.180;2024-02-14T11:47:01;100402.66;;;13.92;100.00
46430;BME280;32131;53.454;-6.180;2024-02-14T11:49:32;100407.84;;;13.92;100.00
46430;BME280;32131;53.454;-6.180;2024-02-14T11:52:00;100400.06;;;13.95;100.00
46430;BME280;32131;53.454;-6.180;2024-02-14T11:54:28;100407.81;;;13.99;100.00
46430;BME280;32131;53.454;-6.180;2024-02-14T11:57:00;100408.63;;;14.06;100.00
46430;BME280;32131;53.454;-6.180;2024-02-14T11:59:31;100406.03;;;14.14;100.00
46430;BME280;32131;53.454;-6.180;2024-02-14T12:02:06;100411.19;;;14.22;100.00
46430;BME280;32131;53.454;-6.180;2024-02-14T12:04:34;100410.25;;;14.32;100.00
46430;BME280;32131;53.454;-6.180;2024-02-14T12:07:03;100413.72;;;14.37;100.00
46430;BME280;32131;53.454;-6.180;2024-02-14T12:09:32;100415.41;;;14.44;100.00
46430;BME280;32131;53.454;-6.180;2024-02-14T12:12:00;100422.28;;;14.55;100.00
46430;BME280;32131;53.454;-6.180;2024-02-14T12:14:35;100417.03;;;14.61;100.00
46430;BME280;32131;53.454;-6.180;2024-02-14T12:17:06;100418.75;;;14.67;100.00
46430;BME280;32131;53.454;-6.180;2024-02-14T12:19:35;100410.94;;;14.71;100.00
46430;BME280;32131;53.454;-6.180;2024-02-14T12:22:09;100428.22;;;14.77;100.00
46430;BME280;32131;53.454;-6.180;2024-02-14T12:24:45;100425.63;;;14.78;100.00
46430;BME280;32131;53.454;-6.180;2024-02-14T12:27:17;100437.75;;;14.80;100.00
46430;BME280;32131;53.454;-6.180;2024-02-14T12:29:48;100426.50;;;14.74;100.00
46430;BME280;32131;53.454;-6.180;2024-02-14T12:32:19;100425.66;;;14.69;100.00
46430;BME280;32131;53.454;-6.180;2024-02-14T12:34:47;100423.06;;;14.71;100.00
46430;BME280;32131;53.454;-6.180;2024-02-14T12:37:15;100430.00;;;14.66;100.00
46430;BME280;32131;53.454;-6.180;2024-02-14T12:39:44;100432.63;;;14.58;100.00
46430;BME280;32131;53.454;-6.180;2024-02-14T12:42:13;100425.72;;;14.52;100.00
46430;BME280;32131;53.454;-6.180;2024-02-14T12:44:41;100430.06;;;14.52;100.00
46430;BME280;32131;53.454;-6.180;2024-02-14T12:47:10;100414.47;;;14.55;100.00
46430;BME280;32131;53.454;-6.180;2024-02-14T12:49:42;100425.75;;;14.54;100.00
46430;BME280;32131;53.454;-6.180;2024-02-14T12:52:16;100428.38;;;14.44;100.00